Time;durP1;ratioP1;P1;durP2;ratioP2;P2;SDS_P1;SDS_P2;PMS_P1;PMS_P2;Temp;Humidity;BMP_temperature;BMP_pressure;BME280_temperature;BME280_humidity;BME280_pressure;Samples;Min_cycle;Max_cycle;Signal;HPM_P1;HPM_P2
2022/08/17 00:00:47;;;;;;;15.57;10.43;;;;;;;;;;5086399;28;20905;-73
2022/08/17 00:03:20;;;;;;;17.00;11.03;;;;;;;;;;5101082;28;20431;-73
2022/08/17 00:05:53;;;;;;;12.07;9.97;;;;;;;;;;5109077;28;20447;-73
2022/08/17 00:08:21;;;;;;;14.43;11.40;;;;;;;;;;5091499;28;20464;-73
2022/08/17 00:10:49;;;;;;;15.20;10.53;;;;;;;;;;5075230;28;20440;-73
2022/08/17 00:13:24;;;;;;;12.40;10.63;;;;;;;;;;5072890;28;20456;-73
2022/08/17 00:15:53;;;;;;;15.13;11.83;;;;;;;;;;5073044;28;20452;-73
2022/08/17 00:18:20;;;;;;;16.30;11.97;;;;;;;;;;5074455;28;20456;-73
2022/08/17 00:21:07;;;;;;;14.23;10.23;;;;;;;;;;5080366;28;20511;-73
2022/08/17 00:23:36;;;;;;;21.07;12.07;;;;;;;;;;5071230;28;20464;-74
2022/08/17 00:26:02;;;;;;;16.77;10.63;;;;;;;;;;5071163;28;20429;-73
2022/08/17 00:28:29;;;;;;;13.60;10.43;;;;;;;;;;5071206;28;20476;-73
2022/08/17 00:30:58;;;;;;;16.13;10.67;;;;;;;;;;5071250;28;20437;-73
2022/08/17 00:33:27;;;;;;;21.93;11.20;;;;;;;;;;5084614;28;20459;-73
2022/08/17 00:35:55;;;;;;;15.93;12.27;;;;;;;;;;5071175;28;20927;-73
2022/08/17 00:38:22;;;;;;;19.40;12.87;;;;;;;;;;5060921;28;20455;-73
2022/08/17 00:40:51;;;;;;;16.23;13.77;;;;;;;;;;5074319;28;20489;-73
2022/08/17 00:43:21;;;;;;;22.43;14.67;;;;;;;;;;5058717;28;20423;-74
2022/08/17 00:45:48;;;;;;;17.03;13.93;;;;;;;;;;5070903;28;20847;-74
2022/08/17 00:48:14;;;;;;;20.33;13.50;;;;;;;;;;5078809;28;20459;-73
2022/08/17 00:51:04;;;;;;;18.03;12.77;;;;;;;;;;5059584;28;20452;-74
2022/08/17 00:53:32;;;;;;;12.90;11.77;;;;;;;;;;5070827;28;20440;-73
2022/08/17 00:56:00;;;;;;;19.17;13.47;;;;;;;;;;5070673;28;20505;-73
2022/08/17 00:58:27;;;;;;;14.10;12.20;;;;;;;;;;5075196;28;20446;-73
2022/08/17 01:01:02;;;;;;;14.40;12.00;;;;;;;;;;5064576;28;20469;-73
2022/08/17 01:03:29;;;;;;;13.97;11.53;;;;;;;;;;5060338;28;20458;-74
2022/08/17 01:05:59;;;;;;;17.07;12.23;;;;;;;;;;5070424;28;20524;-73
2022/08/17 01:08:28;;;;;;;14.93;12.80;;;;;;;;;;5070280;28;20483;-73
2022/08/17 01:10:55;;;;;;;17.60;11.37;;;;;;;;;;5070425;28;20849;-73
2022/08/17 01:13:33;;;;;;;14.00;12.80;;;;;;;;;;5071567;28;20852;-73
2022/08/17 01:16:10;;;;;;;13.77;11.50;;;;;;;;;;5071539;28;20506;-73
2022/08/17 01:18:37;;;;;;;15.90;11.40;;;;;;;;;;5070058;28;20550;-73
2022/08/17 01:21:09;;;;;;;14.57;13.07;;;;;;;;;;5086953;28;20875;-74
2022/08/17 01:23:37;;;;;;;13.80;11.80;;;;;;;;;;5065515;28;20494;-73
2022/08/17 01:26:05;;;;;;;20.47;14.10;;;;;;;;;;5063322;28;20610;-73
2022/08/17 01:28:33;;;;;;;20.03;15.40;;;;;;;;;;5090323;28;20439;-73
2022/08/17 01:31:19;;;;;;;16.23;13.17;;;;;;;;;;5075220;28;20959;-73
2022/08/17 01:33:46;;;;;;;15.00;13.40;;;;;;;;;;5070149;28;20436;-73
2022/08/17 01:36:13;;;;;;;17.83;12.83;;;;;;;;;;5053287;28;20471;-73
2022/08/17 01:38:39;;;;;;;15.77;13.23;;;;;;;;;;5070074;28;20460;-73
2022/08/17 01:41:12;;;;;;;14.50;11.73;;;;;;;;;;5072451;28;20429;-73
2022/08/17 01:43:44;;;;;;;14.40;11.30;;;;;;;;;;5101684;28;20446;-73
2022/08/17 01:46:14;;;;;;;17.17;13.87;;;;;;;;;;5102461;28;20789;-74
2022/08/17 01:48:42;;;;;;;14.00;12.50;;;;;;;;;;5102888;28;20517;-73
2022/08/17 01:51:08;;;;;;;13.93;11.80;;;;;;;;;;5104526;28;20485;-74
2022/08/17 01:53:38;;;;;;;16.70;11.27;;;;;;;;;;5088647;28;20435;-73
2022/08/17 01:56:07;;;;;;;14.70;12.50;;;;;;;;;;5074717;28;20866;-73
2022/08/17 01:58:34;;;;;;;15.97;11.63;;;;;;;;;;5069754;28;20979;-73
2022/08/17 02:01:01;;;;;;;15.67;12.37;;;;;;;;;;5058397;28;20462;-73
2022/08/17 02:03:28;;;;;;;15.63;12.00;;;;;;;;;;5077704;28;20521;-73
2022/08/17 02:05:55;;;;;;;14.17;11.50;;;;;;;;;;5075595;28;20481;-73
2022/08/17 02:08:22;;;;;;;13.00;11.60;;;;;;;;;;5089814;28;20515;-73
2022/08/17 02:11:11;;;;;;;13.50;12.10;;;;;;;;;;5067414;28;20802;-73
2022/08/17 02:13:37;;;;;;;15.93;11.30;;;;;;;;;;5052474;28;20433;-73
2022/08/17 02:16:04;;;;;;;14.07;11.50;;;;;;;;;;5052972;28;20492;-73
2022/08/17 02:18:31;;;;;;;12.90;11.50;;;;;;;;;;5072738;28;20551;-73
2022/08/17 02:20:57;;;;;;;16.43;11.53;;;;;;;;;;5069270;28;20437;-73
2022/08/17 02:23:25;;;;;;;14.60;12.37;;;;;;;;;;5083753;28;20443;-73
2022/08/17 02:25:53;;;;;;;11.80;10.57;;;;;;;;;;5089809;28;20480;-73
2022/08/17 02:28:20;;;;;;;12.90;11.10;;;;;;;;;;5089865;28;20456;-73
2022/08/17 02:30:46;;;;;;;16.93;10.03;;;;;;;;;;5073111;28;20471;-73
2022/08/17 02:33:27;;;;;;;13.47;11.07;;;;;;;;;;5076572;28;20469;-74
2022/08/17 02:36:09;;;;;;;13.63;12.33;;;;;;;;;;5095020;28;20470;-74
2022/08/17 02:38:36;;;;;;;15.17;13.40;;;;;;;;;;5076934;28;20527;-74
2022/08/17 02:41:03;;;;;;;14.43;12.87;;;;;;;;;;5093851;28;20478;-74
2022/08/17 02:43:30;;;;;;;17.10;13.70;;;;;;;;;;5093930;28;20813;-74
2022/08/17 02:45:56;;;;;;;11.80;10.60;;;;;;;;;;5093628;28;20443;-74
2022/08/17 02:48:23;;;;;;;15.27;10.80;;;;;;;;;;5094836;28;20504;-74
2022/08/17 02:50:57;;;;;;;14.10;11.00;;;;;;;;;;5093694;28;20506;-74
2022/08/17 02:53:24;;;;;;;20.93;13.63;;;;;;;;;;5093527;28;20420;-74
2022/08/17 02:55:51;;;;;;;18.40;13.70;;;;;;;;;;5093440;28;20543;-74
2022/08/17 02:58:18;;;;;;;18.80;13.33;;;;;;;;;;5093196;28;20468;-74
2022/08/17 03:01:02;;;;;;;20.57;13.93;;;;;;;;;;5094537;28;20427;-74
2022/08/17 03:03:29;;;;;;;15.37;13.77;;;;;;;;;;5093187;28;20438;-74
2022/08/17 03:05:55;;;;;;;28.30;15.87;;;;;;;;;;5093137;28;20431;-74
2022/08/17 03:08:22;;;;;;;22.10;15.10;;;;;;;;;;5092949;28;20552;-75
2022/08/17 03:10:49;;;;;;;21.27;15.33;;;;;;;;;;5089867;28;20485;-75
2022/08/17 03:13:16;;;;;;;17.30;14.60;;;;;;;;;;5065859;28;20812;-75
2022/08/17 03:15:44;;;;;;;18.00;15.43;;;;;;;;;;5055954;28;20518;-75
2022/08/17 03:18:15;;;;;;;33.43;15.57;;;;;;;;;;5089326;28;20562;-75
2022/08/17 03:20:50;;;;;;;20.63;14.00;;;;;;;;;;5045556;28;20450;-75
2022/08/17 03:23:16;;;;;;;18.23;15.57;;;;;;;;;;5089262;28;20825;-75
2022/08/17 03:25:44;;;;;;;20.93;15.70;;;;;;;;;;5087837;28;20421;-75
2022/08/17 03:28:11;;;;;;;15.43;13.73;;;;;;;;;;5097008;28;20459;-75
2022/08/17 03:30:38;;;;;;;23.73;13.73;;;;;;;;;;5102438;28;20427;-75
2022/08/17 03:33:08;;;;;;;13.33;11.80;;;;;;;;;;5114529;28;20446;-75
2022/08/17 03:35:36;;;;;;;16.73;11.67;;;;;;;;;;5106856;28;20424;-75
2022/08/17 03:38:03;;;;;;;13.73;11.80;;;;;;;;;;5076970;28;20551;-74
2022/08/17 03:40:30;;;;;;;14.43;12.53;;;;;;;;;;5073911;28;20478;-75
2022/08/17 03:43:17;;;;;;;22.23;11.53;;;;;;;;;;5063518;28;20461;-74
2022/08/17 03:57:02;;;;;;;17.37;13.43;;;;;;;;;;5083041;28;21019;-74
2022/08/17 03:59:29;;;;;;;18.87;14.17;;;;;;;;;;5091971;28;20443;-74
2022/08/17 04:01:57;;;;;;;27.23;17.93;;;;;;;;;;5079850;28;20432;-74
2022/08/17 04:04:24;;;;;;;19.17;14.43;;;;;;;;;;5071653;28;20456;-74
2022/08/17 04:06:53;;;;;;;22.43;17.00;;;;;;;;;;5073252;28;20511;-74
2022/08/17 04:09:20;;;;;;;25.40;16.80;;;;;;;;;;5072746;28;20864;-74
2022/08/17 04:11:46;;;;;;;22.17;17.37;;;;;;;;;;5071365;28;20846;-74
2022/08/17 04:14:13;;;;;;;22.40;15.87;;;;;;;;;;5071446;28;20483;-74
2022/08/17 04:16:40;;;;;;;20.47;17.70;;;;;;;;;;5054808;28;20500;-74
2022/08/17 04:19:06;;;;;;;23.17;17.07;;;;;;;;;;5064192;28;20501;-74
2022/08/17 04:21:33;;;;;;;22.10;16.63;;;;;;;;;;5053132;28;21008;-74
2022/08/17 04:24:00;;;;;;;25.10;18.03;;;;;;;;;;5091524;28;20455;-74
2022/08/17 04:26:27;;;;;;;23.27;17.20;;;;;;;;;;5073731;28;20459;-74
2022/08/17 04:29:15;;;;;;;24.10;17.23;;;;;;;;;;5057456;28;20460;-74
2022/08/17 04:31:42;;;;;;;22.57;16.27;;;;;;;;;;5072398;28;20456;-74
2022/08/17 04:34:09;;;;;;;23.30;17.77;;;;;;;;;;5071119;28;20796;-74
2022/08/17 04:36:35;;;;;;;26.33;16.30;;;;;;;;;;5071058;28;20496;-74
2022/08/17 04:39:02;;;;;;;27.10;15.40;;;;;;;;;;5072863;28;20875;-74
2022/08/17 04:44:15;;;;;;;26.50;16.37;;;;;;;;;;5071008;28;20435;-74
2022/08/17 04:47:01;;;;;;;20.80;16.20;;;;;;;;;;5072257;28;20850;-74
2022/08/17 04:49:28;;;;;;;24.93;16.73;;;;;;;;;;5070619;28;20496;-74
2022/08/17 04:51:54;;;;;;;22.40;16.60;;;;;;;;;;5060798;28;20429;-74
2022/08/17 04:54:28;;;;;;;33.03;17.43;;;;;;;;;;5068924;28;20454;-74
2022/08/17 04:56:54;;;;;;;19.77;17.30;;;;;;;;;;5070289;28;20510;-74
2022/08/17 04:59:21;;;;;;;22.60;18.23;;;;;;;;;;5079678;28;20475;-74
2022/08/17 05:01:49;;;;;;;25.67;19.60;;;;;;;;;;5090907;28;20435;-74
2022/08/17 05:04:19;;;;;;;25.40;18.50;;;;;;;;;;5092203;28;20427;-74
2022/08/17 05:07:00;;;;;;;26.03;19.33;;;;;;;;;;5092090;28;20510;-74
2022/08/17 05:09:27;;;;;;;27.90;19.60;;;;;;;;;;5091433;28;20467;-74
2022/08/17 05:11:54;;;;;;;26.23;19.23;;;;;;;;;;5080195;28;20467;-74
2022/08/17 05:14:21;;;;;;;27.93;17.40;;;;;;;;;;5084789;28;20423;-75
2022/08/17 05:16:59;;;;;;;19.20;17.17;;;;;;;;;;5084760;28;20464;-74
2022/08/17 05:19:26;;;;;;;26.27;17.80;;;;;;;;;;5096558;28;20460;-73
2022/08/17 05:21:53;;;;;;;27.20;17.23;;;;;;;;;;5095878;28;20429;-74
2022/08/17 05:24:19;;;;;;;21.70;18.63;;;;;;;;;;5095262;28;20429;-74
2022/08/17 05:27:06;;;;;;;22.30;18.20;;;;;;;;;;5088350;28;20439;-74
2022/08/17 05:29:33;;;;;;;17.33;15.27;;;;;;;;;;5090495;28;20558;-74
2022/08/17 05:32:10;;;;;;;19.03;14.53;;;;;;;;;;5074383;28;20522;-74
2022/08/17 05:34:59;;;;;;;18.47;15.37;;;;;;;;;;5090347;28;20473;-74
2022/08/17 05:37:25;;;;;;;20.23;15.67;;;;;;;;;;5091487;28;20542;-74
2022/08/17 05:39:52;;;;;;;15.83;13.93;;;;;;;;;;5091356;28;20474;-74
2022/08/17 05:42:19;;;;;;;17.47;15.43;;;;;;;;;;5090138;28;20428;-74
2022/08/17 05:44:46;;;;;;;16.23;14.73;;;;;;;;;;5090124;28;20435;-74
2022/08/17 05:47:12;;;;;;;23.87;15.20;;;;;;;;;;5090190;28;20518;-74
2022/08/17 05:49:39;;;;;;;16.47;14.77;;;;;;;;;;5090195;28;20483;-74
2022/08/17 05:52:10;;;;;;;16.70;13.73;;;;;;;;;;5078844;28;20424;-74
2022/08/17 05:54:40;;;;;;;17.93;14.40;;;;;;;;;;5069880;28;20506;-73
2022/08/17 05:57:07;;;;;;;19.70;14.57;;;;;;;;;;5069625;28;20499;-74
2022/08/17 05:59:39;;;;;;;17.17;15.47;;;;;;;;;;5069645;28;20452;-74
2022/08/17 06:02:25;;;;;;;23.27;15.57;;;;;;;;;;5069674;28;20437;-73
2022/08/17 06:04:54;;;;;;;16.20;14.60;;;;;;;;;;5069903;28;20448;-74
2022/08/17 06:07:40;;;;;;;17.33;13.70;;;;;;;;;;5069873;28;20486;-73
2022/08/17 06:10:10;;;;;;;15.17;13.77;;;;;;;;;;5074495;28;20813;-74
2022/08/17 06:12:57;;;;;;;15.03;13.53;;;;;;;;;;5070143;28;20523;-73
2022/08/17 06:15:26;;;;;;;17.43;14.90;;;;;;;;;;5090696;28;20428;-74
2022/08/17 06:17:55;;;;;;;15.70;13.97;;;;;;;;;;5073361;28;20521;-74
2022/08/17 06:20:22;;;;;;;18.40;15.73;;;;;;;;;;5088447;28;20485;-74
2022/08/17 06:22:50;;;;;;;15.20;12.83;;;;;;;;;;5074860;28;20478;-74
2022/08/17 06:25:20;;;;;;;23.53;12.07;;;;;;;;;;5073442;28;20921;-74
2022/08/17 06:27:55;;;;;;;15.40;13.07;;;;;;;;;;5073428;28;20476;-74
2022/08/17 06:30:24;;;;;;;16.00;13.97;;;;;;;;;;5074796;28;21020;-74
2022/08/17 06:32:52;;;;;;;17.83;13.27;;;;;;;;;;5074636;28;20456;-74
2022/08/17 06:35:24;;;;;;;15.03;11.70;;;;;;;;;;5073363;28;20448;-74
2022/08/17 06:38:16;;;;;;;15.40;13.77;;;;;;;;;;5073418;28;20475;-74
2022/08/17 06:41:05;;;;;;;13.00;11.67;;;;;;;;;;5073388;28;20432;-74
2022/08/17 06:43:39;;;;;;;13.03;11.83;;;;;;;;;;5073320;28;20420;-74
2022/08/17 06:46:10;;;;;;;13.77;12.47;;;;;;;;;;5056449;28;20928;-75
2022/08/17 06:48:43;;;;;;;11.33;10.03;;;;;;;;;;5073181;28;20467;-74
2022/08/17 06:51:22;;;;;;;13.00;9.87;;;;;;;;;;5072950;28;21151;-74
2022/08/17 06:54:01;;;;;;;11.07;10.17;;;;;;;;;;5072887;28;20531;-74
2022/08/17 06:56:38;;;;;;;11.43;10.07;;;;;;;;;;5083032;28;20456;-74
2022/08/17 06:59:27;;;;;;;12.00;10.20;;;;;;;;;;5094313;28;20463;-75
2022/08/17 07:02:17;;;;;;;10.67;9.63;;;;;;;;;;5093837;28;20478;-74
2022/08/17 07:04:45;;;;;;;10.60;9.50;;;;;;;;;;5093204;28;20486;-74
2022/08/17 07:09:59;;;;;;;9.90;8.83;;;;;;;;;;5092006;28;20463;-75
2022/08/17 07:12:37;;;;;;;13.80;9.20;;;;;;;;;;5062898;28;20429;-74
2022/08/17 07:15:04;;;;;;;10.10;9.20;;;;;;;;;;5080749;28;20465;-74
2022/08/17 07:17:31;;;;;;;10.73;8.57;;;;;;;;;;5055704;28;20514;-74
2022/08/17 07:20:14;;;;;;;8.00;7.00;;;;;;;;;;5072228;28;20436;-74
2022/08/17 07:22:48;;;;;;;8.90;8.10;;;;;;;;;;5089469;28;20452;-74
2022/08/17 07:25:25;;;;;;;11.60;7.37;;;;;;;;;;5073636;28;20924;-74
2022/08/17 07:27:58;;;;;;;8.13;6.80;;;;;;;;;;5072184;28;20466;-74
2022/08/17 07:30:27;;;;;;;9.03;6.33;;;;;;;;;;5073732;28;20972;-74
2022/08/17 07:32:56;;;;;;;11.10;7.07;;;;;;;;;;5072282;28;20482;-74
2022/08/17 07:35:28;;;;;;;7.27;6.67;;;;;;;;;;5055555;28;20850;-74
2022/08/17 07:38:12;;;;;;;9.67;7.40;;;;;;;;;;5073595;28;20475;-74
2022/08/17 07:40:56;;;;;;;7.00;6.60;;;;;;;;;;5092276;28;20783;-74
2022/08/17 07:43:23;;;;;;;9.00;6.13;;;;;;;;;;5093511;28;20434;-74
2022/08/17 07:48:39;;;;;;;6.00;5.00;;;;;;;;;;5071852;28;20500;-74
2022/08/17 07:51:17;;;;;;;6.13;5.50;;;;;;;;;;5073099;28;20863;-75
2022/08/17 07:53:44;;;;;;;5.67;5.10;;;;;;;;;;5071989;28;20888;-76
2022/08/17 07:56:29;;;;;;;5.00;4.60;;;;;;;;;;5060167;28;20965;-76
2022/08/17 07:59:15;;;;;;;5.20;4.70;;;;;;;;;;5091786;28;20507;-76
2022/08/17 08:01:44;;;;;;;12.40;6.00;;;;;;;;;;5082311;28;20460;-76
2022/08/17 08:04:35;;;;;;;7.40;6.17;;;;;;;;;;5071790;28;20444;-76
2022/08/17 08:07:22;;;;;;;5.83;5.23;;;;;;;;;;5071814;28;20528;-76
2022/08/17 08:09:57;;;;;;;8.43;5.50;;;;;;;;;;5066862;28;20511;-76
2022/08/17 08:12:24;;;;;;;5.90;5.00;;;;;;;;;;5070515;28;20437;-76
2022/08/17 08:15:06;;;;;;;7.50;4.60;;;;;;;;;;5071791;28;20864;-76
2022/08/17 08:17:36;;;;;;;5.03;3.90;;;;;;;;;;5092981;28;21055;-76
2022/08/17 08:20:05;;;;;;;5.30;4.80;;;;;;;;;;5072727;28;20484;-76
2022/08/17 08:23:10;;;;;;;5.27;4.63;;;;;;;;;;5088136;28;20451;-76
2022/08/17 08:25:51;;;;;;;11.53;5.60;;;;;;;;;;5054831;28;20424;-76
2022/08/17 08:28:35;;;;;;;5.53;4.70;;;;;;;;;;5071018;28;20503;-76
2022/08/17 08:31:37;;;;;;;4.40;4.10;;;;;;;;;;5070288;28;20518;-76
2022/08/17 08:34:26;;;;;;;4.67;4.30;;;;;;;;;;4993822;28;20463;-76
2022/08/17 08:37:29;;;;;;;4.60;4.20;;;;;;;;;;5072521;28;20510;-76
2022/08/17 08:40:23;;;;;;;9.03;4.60;;;;;;;;;;5059443;28;20780;-76
2022/08/17 08:42:56;;;;;;;3.80;3.50;;;;;;;;;;5074145;28;20474;-77
2022/08/17 08:45:41;;;;;;;3.40;3.17;;;;;;;;;;5091076;28;20931;-76
2022/08/17 08:48:26;;;;;;;3.53;3.20;;;;;;;;;;5091066;28;20499;-76
2022/08/17 08:51:19;;;;;;;3.67;3.40;;;;;;;;;;5091628;28;20506;-76
2022/08/17 08:54:12;;;;;;;4.07;3.67;;;;;;;;;;5074408;28;20431;-77
2022/08/17 08:56:43;;;;;;;3.97;3.57;;;;;;;;;;5061470;28;20985;-77
2022/08/17 08:59:29;;;;;;;5.33;3.10;;;;;;;;;;5070401;28;20451;-76
2022/08/17 09:02:12;;;;;;;3.70;3.40;;;;;;;;;;5074364;28;20454;-76
2022/08/17 09:04:38;;;;;;;4.03;3.73;;;;;;;;;;5060039;28;20829;-77
2022/08/17 09:07:36;;;;;;;6.43;3.53;;;;;;;;;;5070445;28;20464;-77
2022/08/17 09:10:09;;;;;;;4.43;3.60;;;;;;;;;;5050709;28;20430;-77
2022/08/17 09:12:56;;;;;;;3.33;3.13;;;;;;;;;;5066573;28;20420;-77
2022/08/17 09:15:43;;;;;;;4.00;3.60;;;;;;;;;;5056939;28;20463;-77
2022/08/17 09:18:22;;;;;;;4.53;3.50;;;;;;;;;;5069863;28;20537;-77
2022/08/17 09:21:13;;;;;;;5.83;3.43;;;;;;;;;;5080467;28;20523;-77
2022/08/17 09:23:58;;;;;;;5.23;3.40;;;;;;;;;;5070040;28;20475;-77
2022/08/17 09:27:03;;;;;;;6.63;4.43;;;;;;;;;;5071741;28;20432;-77
2022/08/17 09:29:33;;;;;;;4.50;3.33;;;;;;;;;;5009211;28;20550;-77
2022/08/17 09:32:03;;;;;;;5.67;3.53;;;;;;;;;;4992974;28;20489;-77
2022/08/17 09:34:35;;;;;;;2.90;2.70;;;;;;;;;;5009351;28;20439;-77
2022/08/17 09:37:09;;;;;;;5.93;3.20;;;;;;;;;;5001357;28;20904;-77
2022/08/17 09:39:50;;;;;;;4.40;4.00;;;;;;;;;;4973261;28;20468;-77
2022/08/17 09:42:22;;;;;;;4.03;3.60;;;;;;;;;;4989535;28;20899;-77
2022/08/17 09:45:00;;;;;;;3.27;2.97;;;;;;;;;;4984227;28;20468;-77
2022/08/17 09:47:31;;;;;;;6.07;3.83;;;;;;;;;;4983711;28;20459;-77
2022/08/17 09:50:23;;;;;;;4.33;3.60;;;;;;;;;;4970107;28;20453;-77
2022/08/17 09:53:10;;;;;;;4.80;3.67;;;;;;;;;;4972263;28;20521;-77
2022/08/17 09:55:42;;;;;;;4.43;3.27;;;;;;;;;;5008539;28;20850;-77
2022/08/17 09:58:16;;;;;;;3.60;3.30;;;;;;;;;;4973198;28;20568;-77
2022/08/17 10:00:52;;;;;;;4.37;3.97;;;;;;;;;;5035439;28;20475;-77
2022/08/17 10:03:33;;;;;;;3.90;3.60;;;;;;;;;;5065769;28;20432;-77
2022/08/17 10:06:07;;;;;;;4.27;4.07;;;;;;;;;;5083488;28;20466;-77
2022/08/17 10:08:37;;;;;;;4.70;4.00;;;;;;;;;;5070865;28;20505;-77
2022/08/17 10:11:06;;;;;;;4.33;3.93;;;;;;;;;;5053133;28;20460;-77
2022/08/17 10:13:36;;;;;;;4.27;3.87;;;;;;;;;;5069838;28;20855;-77
2022/08/17 10:16:03;;;;;;;4.70;4.30;;;;;;;;;;5077700;28;20468;-77
2022/08/17 10:18:44;;;;;;;4.03;3.70;;;;;;;;;;5082502;28;21168;-77
2022/08/17 10:26:53;;;;;;;3.50;3.20;;;;;;;;;;5090543;28;20454;-77
2022/08/17 10:29:44;;;;;;;3.77;3.57;;;;;;;;;;5079204;28;21003;-77
2022/08/17 10:32:23;;;;;;;3.57;3.23;;;;;;;;;;5044271;28;20424;-77
2022/08/17 10:34:59;;;;;;;4.90;3.57;;;;;;;;;;5050605;28;20495;-77
2022/08/17 10:37:29;;;;;;;4.13;3.73;;;;;;;;;;5064331;28;20443;-77
2022/08/17 10:40:08;;;;;;;3.70;3.50;;;;;;;;;;5077896;28;20947;-77
2022/08/17 10:42:41;;;;;;;4.73;3.80;;;;;;;;;;5092065;28;20435;-77
2022/08/17 10:45:25;;;;;;;4.80;3.77;;;;;;;;;;5072862;28;20494;-77
2022/08/17 10:47:51;;;;;;;3.80;3.30;;;;;;;;;;5072533;28;20436;-77
2022/08/17 10:50:48;;;;;;;3.83;3.30;;;;;;;;;;5073067;28;20412;-77
2022/08/17 10:53:30;;;;;;;8.37;3.83;;;;;;;;;;5073662;28;20428;-77
2022/08/17 10:56:12;;;;;;;3.90;3.60;;;;;;;;;;5090574;28;20903;-77
2022/08/17 10:58:45;;;;;;;4.63;4.23;;;;;;;;;;5093033;28;20483;-77
2022/08/17 11:01:11;;;;;;;3.83;3.40;;;;;;;;;;5060601;28;20478;-77
2022/08/17 11:03:53;;;;;;;6.93;4.00;;;;;;;;;;5074202;28;20421;-77
2022/08/17 11:06:49;;;;;;;3.70;3.47;;;;;;;;;;5072722;28;20464;-77
2022/08/17 11:09:26;;;;;;;3.33;3.13;;;;;;;;;;5046464;28;20460;-77
2022/08/17 11:11:55;;;;;;;3.83;3.50;;;;;;;;;;5072433;28;20440;-77
2022/08/17 11:14:28;;;;;;;4.07;3.70;;;;;;;;;;5056071;28;20856;-77
2022/08/17 11:16:58;;;;;;;3.17;2.93;;;;;;;;;;5076821;28;20488;-77
2022/08/17 11:19:40;;;;;;;8.53;3.87;;;;;;;;;;5065464;28;20517;-77
2022/08/17 11:22:15;;;;;;;4.23;3.40;;;;;;;;;;5073844;28;20459;-77
2022/08/17 11:24:50;;;;;;;3.70;3.30;;;;;;;;;;5072262;28;20549;-77
2022/08/17 11:27:30;;;;;;;4.07;3.87;;;;;;;;;;5072445;28;20497;-77
2022/08/17 11:30:01;;;;;;;4.23;3.83;;;;;;;;;;5075514;28;20899;-77
2022/08/17 11:32:36;;;;;;;4.37;3.97;;;;;;;;;;5089003;28;20519;-77
2022/08/17 11:35:20;;;;;;;3.90;3.60;;;;;;;;;;5073372;28;20428;-77
2022/08/17 11:38:06;;;;;;;4.03;3.73;;;;;;;;;;5073185;28;20498;-77
2022/08/17 11:40:57;;;;;;;5.67;4.10;;;;;;;;;;5092366;28;20987;-77
2022/08/17 11:43:46;;;;;;;4.03;3.63;;;;;;;;;;5092368;28;20473;-77
2022/08/17 11:46:19;;;;;;;6.00;3.70;;;;;;;;;;5075432;28;20505;-77
2022/08/17 11:51:55;;;;;;;4.40;3.90;;;;;;;;;;5093466;28;20985;-77
2022/08/17 11:54:35;;;;;;;4.23;3.90;;;;;;;;;;5089774;28;20928;-77
2022/08/17 11:57:21;;;;;;;4.40;4.00;;;;;;;;;;5073160;28;20538;-77
2022/08/17 11:59:50;;;;;;;4.87;3.90;;;;;;;;;;5072964;28;21019;-77
2022/08/17 12:02:33;;;;;;;3.90;3.60;;;;;;;;;;5088927;28;20991;-77
2022/08/17 12:05:10;;;;;;;3.73;3.53;;;;;;;;;;5074844;28;20568;-77
2022/08/17 12:07:43;;;;;;;5.70;3.57;;;;;;;;;;5085357;28;20482;-77
2022/08/17 12:10:11;;;;;;;3.70;3.50;;;;;;;;;;5058296;28;20528;-77
2022/08/17 12:12:42;;;;;;;5.10;4.00;;;;;;;;;;5068087;28;20434;-77
2022/08/17 12:15:16;;;;;;;5.40;3.80;;;;;;;;;;5071278;28;20451;-75
2022/08/17 12:17:49;;;;;;;4.63;4.23;;;;;;;;;;5070991;28;20500;-75
2022/08/17 12:20:17;;;;;;;5.90;3.73;;;;;;;;;;5071718;28;20427;-74
2022/08/17 12:22:44;;;;;;;4.53;3.97;;;;;;;;;;5072479;28;20469;-74
2022/08/17 12:25:20;;;;;;;5.13;4.27;;;;;;;;;;5071247;28;20443;-75
2022/08/17 12:27:48;;;;;;;4.17;3.77;;;;;;;;;;5071018;28;20457;-75
2022/08/17 12:30:34;;;;;;;3.80;3.50;;;;;;;;;;5080695;28;20414;-75
2022/08/17 12:33:02;;;;;;;5.37;3.60;;;;;;;;;;5074630;28;20841;-75
2022/08/17 12:35:35;;;;;;;4.03;3.60;;;;;;;;;;5074602;28;20445;-76
2022/08/17 12:38:03;;;;;;;4.30;3.90;;;;;;;;;;5074309;28;20491;-75
2022/08/17 12:40:31;;;;;;;3.80;3.50;;;;;;;;;;5081168;28;20439;-75
2022/08/17 12:42:57;;;;;;;4.40;4.00;;;;;;;;;;5057251;28;20920;-75
2022/08/17 12:45:28;;;;;;;3.47;3.20;;;;;;;;;;5072294;28;20426;-75
2022/08/17 12:48:11;;;;;;;4.37;4.00;;;;;;;;;;5070797;28;20994;-75
2022/08/17 12:50:43;;;;;;;4.33;3.83;;;;;;;;;;5071773;28;20481;-75
2022/08/17 12:53:14;;;;;;;8.40;4.27;;;;;;;;;;5075276;28;20429;-75
2022/08/17 12:55:41;;;;;;;4.20;3.80;;;;;;;;;;5073148;28;20497;-75
2022/08/17 12:58:15;;;;;;;5.00;4.50;;;;;;;;;;5053912;28;20463;-75
2022/08/17 13:00:50;;;;;;;4.23;3.93;;;;;;;;;;5070653;28;20504;-75
2022/08/17 13:03:18;;;;;;;4.43;4.03;;;;;;;;;;5070630;28;20479;-76
2022/08/17 13:05:50;;;;;;;4.10;3.80;;;;;;;;;;5087257;28;20460;-75
2022/08/17 13:08:43;;;;;;;3.87;3.57;;;;;;;;;;5053685;28;20542;-76
2022/08/17 13:11:13;;;;;;;4.40;4.10;;;;;;;;;;5066901;28;20449;-76
2022/08/17 13:13:41;;;;;;;4.20;3.90;;;;;;;;;;5053627;28;20527;-76
2022/08/17 13:16:14;;;;;;;4.03;3.80;;;;;;;;;;5087416;28;20478;-76
2022/08/17 13:18:42;;;;;;;3.87;3.57;;;;;;;;;;5069506;28;20483;-76
2022/08/17 13:21:11;;;;;;;5.40;4.60;;;;;;;;;;5087213;28;20416;-76
2022/08/17 13:23:37;;;;;;;6.83;5.00;;;;;;;;;;5053607;28;20433;-75
2022/08/17 13:26:14;;;;;;;4.50;4.10;;;;;;;;;;5069964;28;20990;-77
2022/08/17 13:28:48;;;;;;;4.03;3.83;;;;;;;;;;5086714;28;20955;-77
2022/08/17 13:31:25;;;;;;;4.23;3.83;;;;;;;;;;5070339;28;20462;-77
2022/08/17 13:33:51;;;;;;;3.93;3.50;;;;;;;;;;5071324;28;20419;-77
2022/08/17 13:36:30;;;;;;;4.67;4.30;;;;;;;;;;5069844;28;20853;-77
2022/08/17 13:39:13;;;;;;;3.83;3.53;;;;;;;;;;5082332;28;20470;-77
2022/08/17 13:41:39;;;;;;;3.30;3.10;;;;;;;;;;5090009;28;20478;-77
2022/08/17 13:44:27;;;;;;;5.10;3.20;;;;;;;;;;5090111;28;20781;-77
2022/08/17 13:46:53;;;;;;;3.93;3.10;;;;;;;;;;5089905;28;20433;-77
2022/08/17 13:49:22;;;;;;;5.43;3.47;;;;;;;;;;5073590;28;20459;-77
2022/08/17 13:51:49;;;;;;;3.60;3.30;;;;;;;;;;5073159;28;20427;-77
2022/08/17 13:54:36;;;;;;;3.70;3.40;;;;;;;;;;5073080;28;20536;-77
2022/08/17 13:57:03;;;;;;;3.47;3.23;;;;;;;;;;5072972;28;20447;-77
2022/08/17 13:59:36;;;;;;;5.73;3.80;;;;;;;;;;5072964;28;20478;-77
2022/08/17 14:02:21;;;;;;;3.90;3.40;;;;;;;;;;5075679;28;20965;-77
2022/08/17 14:04:51;;;;;;;6.03;4.03;;;;;;;;;;5089931;28;20427;-77
2022/08/17 14:07:18;;;;;;;4.03;3.40;;;;;;;;;;5091118;28;20433;-77
2022/08/17 14:09:47;;;;;;;4.03;3.70;;;;;;;;;;5072835;28;20495;-77
2022/08/17 14:12:15;;;;;;;4.40;4.00;;;;;;;;;;5067703;28;20996;-77
2022/08/17 14:14:42;;;;;;;3.97;3.57;;;;;;;;;;5070787;28;20493;-76
2022/08/17 14:17:09;;;;;;;4.73;3.23;;;;;;;;;;5069130;28;20940;-76
2022/08/17 14:19:36;;;;;;;5.30;3.30;;;;;;;;;;5070839;28;20568;-75
2022/08/17 14:22:03;;;;;;;3.60;3.40;;;;;;;;;;5069352;28;20460;-75
2022/08/17 14:24:33;;;;;;;3.87;3.57;;;;;;;;;;5069711;28;20433;-75
2022/08/17 14:27:00;;;;;;;3.43;3.13;;;;;;;;;;5086030;28;20424;-75
2022/08/17 14:29:28;;;;;;;7.03;4.50;;;;;;;;;;5070922;28;20971;-76
2022/08/17 14:31:55;;;;;;;4.30;3.90;;;;;;;;;;5090180;28;20420;-76
2022/08/17 14:34:23;;;;;;;5.23;4.83;;;;;;;;;;5090250;28;20431;-76
2022/08/17 14:36:50;;;;;;;5.30;4.80;;;;;;;;;;5073199;28;20444;-76
2022/08/17 14:39:17;;;;;;;5.43;4.93;;;;;;;;;;5073065;28;20479;-75
2022/08/17 14:41:44;;;;;;;5.87;5.47;;;;;;;;;;5063806;28;20442;-75
2022/08/17 14:44:11;;;;;;;4.40;4.10;;;;;;;;;;5093701;28;20438;-75
2022/08/17 14:46:42;;;;;;;5.97;5.37;;;;;;;;;;5076872;28;20466;-76
2022/08/17 14:49:09;;;;;;;6.17;5.00;;;;;;;;;;5061169;28;20496;-75
2022/08/17 14:51:37;;;;;;;6.10;4.40;;;;;;;;;;5073313;28;20438;-75
2022/08/17 14:54:09;;;;;;;5.07;4.10;;;;;;;;;;5090074;28;20427;-75
2022/08/17 14:56:37;;;;;;;4.10;3.50;;;;;;;;;;5072988;28;20432;-75
2022/08/17 14:59:04;;;;;;;4.13;3.73;;;;;;;;;;5073177;28;20472;-75
2022/08/17 15:01:30;;;;;;;4.80;4.10;;;;;;;;;;5072792;28;20429;-75
2022/08/17 15:03:57;;;;;;;4.00;3.50;;;;;;;;;;5072649;28;21022;-75
2022/08/17 15:06:24;;;;;;;5.30;4.80;;;;;;;;;;5072724;28;20444;-75
2022/08/17 15:08:50;;;;;;;8.10;5.30;;;;;;;;;;5055920;28;20488;-75
2022/08/17 15:11:17;;;;;;;4.20;3.90;;;;;;;;;;5056168;28;20531;-75
2022/08/17 15:13:48;;;;;;;3.70;3.47;;;;;;;;;;5055884;28;20947;-75
2022/08/17 15:16:19;;;;;;;7.27;3.83;;;;;;;;;;5073404;28;20448;-75
2022/08/17 15:18:46;;;;;;;4.47;4.07;;;;;;;;;;5084163;28;20486;-76
2022/08/17 15:21:13;;;;;;;5.30;4.03;;;;;;;;;;5076146;28;20864;-76
2022/08/17 15:23:40;;;;;;;4.00;3.80;;;;;;;;;;5092676;28;20416;-76
2022/08/17 15:26:09;;;;;;;4.47;4.10;;;;;;;;;;5092584;28;20427;-76
2022/08/17 15:28:36;;;;;;;5.40;4.47;;;;;;;;;;5074847;28;20443;-76
2022/08/17 15:31:04;;;;;;;6.30;4.30;;;;;;;;;;5072407;28;20443;-75
2022/08/17 15:33:31;;;;;;;4.20;3.80;;;;;;;;;;5072116;28;20487;-75